createdAt,value
2023-03-25T00:01:02.911Z,1.60
2023-03-25T00:03:33.825Z,1.60
2023-03-25T00:06:00.357Z,1.95
2023-03-25T00:08:26.961Z,1.92
2023-03-25T00:10:58.969Z,1.70
2023-03-25T00:13:25.984Z,1.90
2023-03-25T00:15:58.185Z,2.25
2023-03-25T00:18:26.629Z,1.98
2023-03-25T00:20:53.428Z,1.98
2023-03-25T00:23:20.746Z,2.20
2023-03-25T00:25:48.209Z,2.17
2023-03-25T00:28:16.107Z,2.03
2023-03-25T00:30:43.454Z,2.13
2023-03-25T00:33:13.344Z,1.77
2023-03-25T00:35:44.643Z,1.90
2023-03-25T00:38:12.033Z,2.20
2023-03-25T00:40:38.515Z,2.20
2023-03-25T00:43:06.519Z,2.00
2023-03-25T00:45:33.881Z,1.77
2023-03-25T00:48:00.440Z,1.80
2023-03-25T00:50:26.845Z,2.05
2023-03-25T00:52:56.052Z,1.75
2023-03-25T00:55:22.439Z,1.60
2023-03-25T00:57:48.821Z,1.60
2023-03-25T01:00:17.093Z,2.08
2023-03-25T01:02:43.793Z,1.63
2023-03-25T01:05:10.450Z,2.00
2023-03-25T01:07:38.332Z,2.00
2023-03-25T01:10:05.707Z,1.63
2023-03-25T01:12:32.210Z,1.85
2023-03-25T01:14:58.592Z,1.95
2023-03-25T01:17:25.057Z,1.80
2023-03-25T01:19:51.611Z,2.75
2023-03-25T01:22:18.101Z,2.22
2023-03-25T01:24:44.572Z,2.13
2023-03-25T01:27:10.928Z,2.83
2023-03-25T01:29:37.385Z,2.78
2023-03-25T01:32:03.953Z,2.42
2023-03-25T01:34:33.100Z,2.85
2023-03-25T01:37:00.954Z,3.13
2023-03-25T01:39:27.318Z,2.58
2023-03-25T01:41:55.051Z,2.58
2023-03-25T01:44:24.404Z,2.83
2023-03-25T01:46:53.613Z,2.67
2023-03-25T01:49:23.755Z,2.90
2023-03-25T01:51:59.820Z,2.95
2023-03-25T01:54:27.337Z,2.90
2023-03-25T01:56:54.078Z,3.22
2023-03-25T01:59:24.884Z,2.90
2023-03-25T02:01:51.571Z,3.15
2023-03-25T02:04:27.179Z,3.72
2023-03-25T02:06:54.329Z,3.45
2023-03-25T02:09:24.668Z,3.88
2023-03-25T02:11:54.604Z,4.38
2023-03-25T02:14:23.659Z,3.88
2023-03-25T02:17:04.864Z,3.72
2023-03-25T02:19:36.934Z,3.70
2023-03-25T02:22:25.607Z,3.72
2023-03-25T02:25:01.973Z,3.60
2023-03-25T02:27:45.811Z,3.60
2023-03-25T02:30:33.512Z,3.30
2023-03-25T02:33:02.896Z,3.50
2023-03-25T02:36:17.164Z,3.58
2023-03-25T02:39:15.027Z,3.40
2023-03-25T02:41:51.622Z,3.28
2023-03-25T02:44:22.946Z,2.90
2023-03-25T02:46:53.578Z,2.83
2023-03-25T02:49:41.458Z,2.88
2023-03-25T02:52:43.511Z,2.40
2023-03-25T02:55:12.370Z,2.88
2023-03-25T02:57:41.710Z,2.50
2023-03-25T03:00:14.889Z,2.33
2023-03-25T03:02:50.574Z,2.33
2023-03-25T03:05:40.871Z,2.17
2023-03-25T03:08:30.994Z,2.80
2023-03-25T03:11:15.678Z,2.70
2023-03-25T03:13:49.746Z,2.35
2023-03-25T03:16:32.429Z,2.60
2023-03-25T03:22:14.068Z,3.15
2023-03-25T03:25:02.811Z,2.75
2023-03-25T03:27:35.983Z,2.40
2023-03-25T03:30:07.978Z,2.60
2023-03-25T03:32:43.424Z,2.60
2023-03-25T03:35:21.102Z,2.80
2023-03-25T03:37:56.334Z,2.75
2023-03-25T03:40:23.874Z,2.78
2023-03-25T03:43:11.968Z,2.58
2023-03-25T03:45:41.763Z,2.45
2023-03-25T03:48:13.691Z,2.80
2023-03-25T03:50:44.919Z,2.88
2023-03-25T03:53:16.272Z,2.83
2023-03-25T03:56:06.660Z,2.83
2023-03-25T03:58:36.602Z,3.00
2023-03-25T04:01:10.350Z,2.92
2023-03-25T04:03:48.476Z,3.58
2023-03-25T04:06:35.920Z,3.42
2023-03-25T04:09:07.069Z,3.63
2023-03-25T04:11:40.323Z,2.97
2023-03-25T04:14:07.584Z,2.13
2023-03-25T04:16:36.005Z,2.60
2023-03-25T04:19:05.898Z,2.75
2023-03-25T04:21:33.146Z,2.55
2023-03-25T04:24:01.114Z,3.67
2023-03-25T04:26:33.544Z,3.85
2023-03-25T04:31:33.634Z,3.60
2023-03-25T04:34:00.520Z,4.05
2023-03-25T04:36:33.441Z,4.45
2023-03-25T04:38:59.859Z,4.25
2023-03-25T04:41:26.280Z,4.35
2023-03-25T04:43:52.660Z,4.93
2023-03-25T04:46:19.857Z,5.10
2023-03-25T04:48:47.414Z,5.20
2023-03-25T04:51:14.571Z,4.80
2023-03-25T04:53:41.335Z,4.60
2023-03-25T04:56:16.039Z,4.20
2023-03-25T04:58:46.164Z,4.55
2023-03-25T05:01:23.155Z,4.38
2023-03-25T05:03:50.297Z,4.15
2023-03-25T05:06:17.876Z,3.67
2023-03-25T05:08:44.230Z,3.38
2023-03-25T05:11:10.901Z,3.10
2023-03-25T05:13:37.386Z,2.80
2023-03-25T05:16:03.866Z,2.92
2023-03-25T05:18:31.148Z,3.33
2023-03-25T05:20:57.536Z,3.17
2023-03-25T05:23:24.810Z,3.00
2023-03-25T05:25:51.587Z,2.83
2023-03-25T05:28:18.494Z,3.15
2023-03-25T05:30:46.080Z,2.83
2023-03-25T05:33:15.373Z,2.80
2023-03-25T05:35:42.697Z,2.92
2023-03-25T05:38:12.288Z,3.08
2023-03-25T05:40:40.005Z,2.95
2023-03-25T05:43:06.956Z,2.97
2023-03-25T05:45:36.025Z,3.10
2023-03-25T05:48:03.552Z,3.53
2023-03-25T05:50:30.153Z,3.35
2023-03-25T05:52:57.399Z,3.42
2023-03-25T05:55:24.023Z,3.33
2023-03-25T05:57:50.426Z,3.08
2023-03-25T06:00:19.242Z,4.03
2023-03-25T06:02:46.110Z,3.55
2023-03-25T06:05:16.818Z,4.13
2023-03-25T06:07:45.868Z,4.05
2023-03-25T06:10:17.097Z,3.42
2023-03-25T06:12:45.478Z,3.88
2023-03-25T06:15:13.815Z,4.22
2023-03-25T06:17:40.526Z,4.75
2023-03-25T06:20:12.493Z,4.22
2023-03-25T06:22:44.080Z,4.28
2023-03-25T06:25:17.592Z,4.30
2023-03-25T06:27:44.606Z,4.85
2023-03-25T06:30:13.445Z,4.43
2023-03-25T06:32:40.153Z,4.20
2023-03-25T06:35:08.007Z,4.43
2023-03-25T06:37:34.855Z,4.05
2023-03-25T06:40:01.239Z,4.00
2023-03-25T06:42:27.648Z,3.70
2023-03-25T06:44:54.691Z,2.97
2023-03-25T06:47:21.654Z,3.30
2023-03-25T06:49:48.397Z,3.90
2023-03-25T06:52:14.809Z,3.65
2023-03-25T06:54:41.568Z,4.57
2023-03-25T06:57:07.972Z,4.60
2023-03-25T06:59:34.349Z,4.53
2023-03-25T07:02:01.026Z,4.07
2023-03-25T07:04:27.415Z,5.00
2023-03-25T07:06:55.080Z,4.28
2023-03-25T07:09:23.042Z,4.30
2023-03-25T07:11:49.459Z,3.92
2023-03-25T07:14:15.863Z,3.63
2023-03-25T07:16:42.356Z,4.07
2023-03-25T07:19:08.870Z,3.88
2023-03-25T07:21:35.458Z,3.10
2023-03-25T07:24:01.860Z,3.40
2023-03-25T07:26:28.252Z,3.20
2023-03-25T07:28:54.613Z,2.90
2023-03-25T07:31:21.118Z,2.72
2023-03-25T07:33:47.613Z,2.80
2023-03-25T07:36:14.391Z,2.83
2023-03-25T07:38:43.795Z,2.75
2023-03-25T07:41:11.634Z,2.80
2023-03-25T07:43:38.374Z,2.58
2023-03-25T07:46:05.408Z,2.28
2023-03-25T07:52:12.547Z,2.58
2023-03-25T07:54:38.914Z,2.92
2023-03-25T07:57:05.393Z,3.55
2023-03-25T07:59:31.823Z,3.35
2023-03-25T08:01:58.292Z,3.92
2023-03-25T08:04:24.693Z,3.95
2023-03-25T08:06:51.056Z,3.50
2023-03-25T08:09:17.468Z,3.65
2023-03-25T08:11:43.824Z,3.80
2023-03-25T08:14:10.247Z,3.70
2023-03-25T08:16:36.702Z,3.15
2023-03-25T08:19:03.213Z,2.90
2023-03-25T08:21:30.053Z,3.00
2023-03-25T08:24:04.520Z,3.35
2023-03-25T08:26:33.595Z,3.70
2023-03-25T08:29:02.529Z,3.17
2023-03-25T08:31:34.213Z,3.28
2023-03-25T08:34:01.923Z,3.45
2023-03-25T08:36:28.627Z,3.85
2023-03-25T08:38:55.420Z,3.75
2023-03-25T08:41:21.817Z,3.95
2023-03-25T08:43:49.207Z,3.67
2023-03-25T08:46:16.256Z,3.95
2023-03-25T08:48:44.261Z,4.03
2023-03-25T08:51:10.697Z,3.63
2023-03-25T08:53:37.134Z,4.40
2023-03-25T08:56:03.638Z,4.25
2023-03-25T08:58:30.214Z,4.60
2023-03-25T09:00:57.517Z,4.28
2023-03-25T09:03:24.437Z,4.20
2023-03-25T09:05:51.107Z,4.38
2023-03-25T09:08:17.768Z,4.32
2023-03-25T09:10:44.243Z,4.03
2023-03-25T09:13:11.063Z,4.72
2023-03-25T09:15:37.451Z,4.57
2023-03-25T09:18:04.690Z,4.60
2023-03-25T09:20:31.672Z,4.47
2023-03-25T09:22:58.528Z,4.68
2023-03-25T09:25:25.684Z,4.25
2023-03-25T09:27:52.069Z,4.32
2023-03-25T09:30:18.778Z,3.92
2023-03-25T09:32:45.336Z,4.35
2023-03-25T09:35:11.707Z,4.55
2023-03-25T09:37:38.108Z,3.83
2023-03-25T09:40:05.271Z,3.72
2023-03-25T09:42:40.406Z,3.67
2023-03-25T09:45:13.900Z,3.90
2023-03-25T09:50:12.772Z,3.88
2023-03-25T09:53:03.671Z,4.43
2023-03-25T09:55:33.258Z,3.63
2023-03-25T09:58:14.561Z,3.08
2023-03-25T10:00:41.295Z,3.72
2023-03-25T10:03:20.357Z,3.97
2023-03-25T10:05:58.920Z,4.47
2023-03-25T10:09:03.912Z,3.80
2023-03-25T10:11:39.558Z,2.83
2023-03-25T10:14:11.338Z,3.40
2023-03-25T10:17:04.730Z,3.35
2023-03-25T10:20:00.589Z,3.22
2023-03-25T10:22:32.423Z,3.03
2023-03-25T10:25:04.840Z,3.45
2023-03-25T10:30:16.871Z,4.20
2023-03-25T10:32:53.532Z,3.28
2023-03-25T10:35:24.162Z,3.70
2023-03-25T10:37:53.953Z,3.25
2023-03-25T10:40:39.368Z,2.85
2023-03-25T10:43:14.982Z,3.00
2023-03-25T10:45:42.841Z,2.67
2023-03-25T10:48:22.879Z,3.13
2023-03-25T10:50:51.662Z,3.60
2023-03-25T10:53:25.479Z,3.85
2023-03-25T10:56:13.410Z,3.80
2023-03-25T10:58:41.135Z,3.67
2023-03-25T11:01:17.706Z,3.55
2023-03-25T11:03:44.977Z,3.30
2023-03-25T11:06:41.115Z,3.75
2023-03-25T11:09:19.213Z,3.17
2023-03-25T11:11:46.985Z,2.92
2023-03-25T11:14:13.709Z,3.47
2023-03-25T11:16:48.262Z,3.38
2023-03-25T11:19:41.957Z,3.30
2023-03-25T11:22:16.307Z,3.53
2023-03-25T11:24:46.824Z,2.80
2023-03-25T11:27:18.543Z,3.50
2023-03-25T11:29:53.542Z,2.78
2023-03-25T11:32:25.265Z,2.55
2023-03-25T11:34:53.546Z,2.85
2023-03-25T11:37:22.164Z,3.03
2023-03-25T11:39:55.488Z,3.22
2023-03-25T11:42:33.568Z,2.53
2023-03-25T11:45:01.218Z,2.30
2023-03-25T11:47:36.719Z,2.42
2023-03-25T11:50:04.437Z,2.30
2023-03-25T11:52:45.346Z,2.00
2023-03-25T11:55:22.585Z,2.40
2023-03-25T11:57:50.614Z,2.50
2023-03-25T12:00:29.277Z,1.88
2023-03-25T12:03:05.725Z,2.30
2023-03-25T12:05:33.170Z,2.08
2023-03-25T12:08:16.203Z,2.28
2023-03-25T12:10:52.784Z,2.17
2023-03-25T12:13:53.326Z,2.10
2023-03-25T12:16:41.490Z,2.60
2023-03-25T12:19:20.227Z,2.08
2023-03-25T12:22:03.662Z,2.30
2023-03-25T12:24:53.404Z,2.08
2023-03-25T12:27:29.944Z,2.47
2023-03-25T12:30:02.913Z,2.60
2023-03-25T12:32:50.342Z,2.75
2023-03-25T12:35:29.580Z,2.10
2023-03-25T12:38:17.062Z,2.60
2023-03-25T12:41:19.880Z,2.38
2023-03-25T12:43:58.806Z,2.55
2023-03-25T12:46:48.503Z,2.50
2023-03-25T12:49:40.924Z,2.50
2023-03-25T12:52:35.636Z,3.10
2023-03-25T12:55:29.452Z,3.55
2023-03-25T12:58:23.796Z,2.72
2023-03-25T13:01:00.571Z,2.95
2023-03-25T13:03:35.967Z,3.40
2023-03-25T13:06:32.219Z,2.80
2023-03-25T13:09:11.089Z,4.13
2023-03-25T13:11:50.024Z,2.58
2023-03-25T13:14:43.898Z,3.35
2023-03-25T13:17:23.524Z,3.40
2023-03-25T13:20:00.293Z,1.85
2023-03-25T13:22:33.689Z,2.60
2023-03-25T13:25:05.969Z,2.20
2023-03-25T13:27:34.730Z,1.98
2023-03-25T13:30:02.233Z,1.73
2023-03-25T13:32:34.537Z,1.52
2023-03-25T13:35:07.221Z,1.80
2023-03-25T13:37:38.533Z,1.92
2023-03-25T13:40:11.769Z,1.73
2023-03-25T13:43:05.821Z,2.00
2023-03-25T13:45:44.801Z,2.50
2023-03-25T13:48:18.869Z,2.78
2023-03-25T13:50:45.711Z,3.20
2023-03-25T13:53:35.894Z,3.17
2023-03-25T13:56:21.576Z,5.00
2023-03-25T13:59:20.952Z,3.50
2023-03-25T14:02:23.119Z,4.07
2023-03-25T14:05:18.732Z,2.90
2023-03-25T14:08:07.434Z,4.68
2023-03-25T14:11:17.102Z,9.60
2023-03-25T14:13:52.507Z,4.63
2023-03-25T14:16:23.213Z,3.35
2023-03-25T14:18:52.996Z,2.78
2023-03-25T14:21:32.049Z,1.90
2023-03-25T14:24:06.856Z,2.05
2023-03-25T14:26:34.688Z,1.15
2023-03-25T14:29:08.345Z,1.35
2023-03-25T14:31:34.915Z,1.50
2023-03-25T14:34:04.140Z,1.80
2023-03-25T14:36:30.995Z,1.95
2023-03-25T14:38:58.451Z,3.00
2023-03-25T14:42:00.296Z,3.40
2023-03-25T14:44:32.878Z,3.20
2023-03-25T14:47:26.490Z,3.30
2023-03-25T14:49:54.771Z,2.70
2023-03-25T14:52:52.827Z,2.83
2023-03-25T14:55:22.052Z,3.08
2023-03-25T14:57:50.616Z,3.25
2023-03-25T15:00:29.436Z,3.10
2023-03-25T15:03:02.995Z,3.22
2023-03-25T15:05:31.267Z,3.13
2023-03-25T15:08:00.430Z,2.72
2023-03-25T15:10:30.527Z,2.15
2023-03-25T15:13:07.406Z,2.63
2023-03-25T15:15:57.448Z,1.90
2023-03-25T15:18:39.050Z,2.33
2023-03-25T15:21:08.395Z,2.33
2023-03-25T15:23:41.143Z,1.40
2023-03-25T15:26:19.552Z,2.00
2023-03-25T15:28:52.556Z,2.42
2023-03-25T15:31:38.188Z,2.22
2023-03-25T15:34:29.655Z,2.30
2023-03-25T15:37:15.623Z,2.15
2023-03-25T15:39:49.365Z,2.00
2023-03-25T15:42:42.576Z,1.67
2023-03-25T15:45:20.597Z,1.80
2023-03-25T15:48:03.357Z,2.40
2023-03-25T15:51:08.042Z,1.73
2023-03-25T15:53:51.037Z,1.83
2023-03-25T15:56:23.810Z,1.60
2023-03-25T15:58:54.972Z,2.00
2023-03-25T16:01:26.757Z,2.00
2023-03-25T16:03:58.644Z,1.60
2023-03-25T16:06:26.472Z,1.55
2023-03-25T16:08:55.224Z,1.80
2023-03-25T16:11:21.580Z,1.65
2023-03-25T16:13:48.853Z,1.60
2023-03-25T16:16:16.507Z,1.45
2023-03-25T16:18:45.716Z,1.50
2023-03-25T16:21:12.469Z,1.92
2023-03-25T16:23:39.356Z,1.98
2023-03-25T16:26:06.543Z,1.60
2023-03-25T16:28:39.052Z,1.70
2023-03-25T16:33:39.052Z,1.95
2023-03-25T16:36:14.660Z,1.55
2023-03-25T16:38:41.282Z,1.52
2023-03-25T16:41:11.838Z,1.73
2023-03-25T16:43:38.395Z,1.73
2023-03-25T16:46:05.797Z,1.75
2023-03-25T16:48:37.532Z,1.45
2023-03-25T16:51:15.454Z,1.00
2023-03-25T16:53:42.345Z,1.90
2023-03-25T16:56:08.827Z,1.80
2023-03-25T16:58:48.524Z,1.33
2023-03-25T17:01:15.701Z,1.33
2023-03-25T17:03:44.982Z,1.70
2023-03-25T17:06:35.317Z,1.45
2023-03-25T17:09:04.748Z,1.52
2023-03-25T17:11:32.091Z,1.50
2023-03-25T17:14:00.965Z,1.58
2023-03-25T17:16:28.990Z,1.30
2023-03-25T17:18:56.429Z,1.05
2023-03-25T17:21:27.179Z,1.67
2023-03-25T17:23:55.493Z,1.40
2023-03-25T17:26:25.339Z,1.85
2023-03-25T17:28:54.622Z,1.77
2023-03-25T17:31:30.482Z,1.52
2023-03-25T17:34:01.625Z,1.48
2023-03-25T17:36:30.531Z,1.80
2023-03-25T17:38:57.821Z,1.50
2023-03-25T17:41:29.541Z,1.55
2023-03-25T17:43:56.697Z,1.77
2023-03-25T17:46:25.574Z,1.52
2023-03-25T17:48:53.507Z,1.25
2023-03-25T17:51:20.871Z,1.10
2023-03-25T17:53:47.998Z,1.10
2023-03-25T17:56:17.291Z,1.35
2023-03-25T17:58:44.045Z,1.10
2023-03-25T18:01:13.921Z,0.80
2023-03-25T18:03:40.568Z,0.90
2023-03-25T18:06:07.553Z,1.60
2023-03-25T18:08:34.839Z,0.80
2023-03-25T18:11:01.424Z,1.08
2023-03-25T18:13:27.982Z,0.75
2023-03-25T18:15:55.332Z,0.77
2023-03-25T18:18:24.621Z,0.80
2023-03-25T18:20:51.904Z,1.00
2023-03-25T18:23:18.520Z,0.85
2023-03-25T18:25:45.262Z,0.80
2023-03-25T18:28:13.324Z,1.10
2023-03-25T18:31:01.341Z,0.90
2023-03-25T18:33:28.984Z,1.23
2023-03-25T18:35:59.288Z,1.08
2023-03-25T18:38:27.331Z,1.02
2023-03-25T18:40:55.368Z,1.30
2023-03-25T18:43:22.376Z,1.10
2023-03-25T18:45:49.208Z,1.10
2023-03-25T18:48:20.688Z,1.40
2023-03-25T18:51:05.289Z,1.25
2023-03-25T18:53:31.718Z,1.20
2023-03-25T18:56:00.831Z,1.23
2023-03-25T18:58:30.952Z,1.40
2023-03-25T19:00:57.718Z,1.10
2023-03-25T19:03:30.377Z,1.25
2023-03-25T19:05:58.346Z,1.30
2023-03-25T19:08:24.901Z,1.02
2023-03-25T19:10:54.682Z,1.50
2023-03-25T19:13:25.929Z,1.42
2023-03-25T19:15:52.338Z,1.35
2023-03-25T19:18:22.123Z,1.45
2023-03-25T19:20:49.510Z,1.52
2023-03-25T19:23:16.979Z,1.45
2023-03-25T19:25:47.942Z,1.20
2023-03-25T19:28:16.710Z,1.33
2023-03-25T19:30:45.489Z,0.98
2023-03-25T19:33:12.772Z,1.30
2023-03-25T19:35:39.652Z,1.13
2023-03-25T19:38:06.720Z,1.17
2023-03-25T19:40:35.392Z,1.23
2023-03-25T19:43:02.348Z,1.33
2023-03-25T19:45:30.519Z,1.13
2023-03-25T19:47:57.442Z,1.42
2023-03-25T19:50:29.386Z,1.30
2023-03-25T19:52:56.472Z,1.38
2023-03-25T19:55:24.107Z,1.30
2023-03-25T19:57:50.977Z,1.35
2023-03-25T20:00:20.255Z,1.60
2023-03-25T20:02:48.803Z,2.22
2023-03-25T20:05:15.806Z,2.80
2023-03-25T20:07:43.659Z,1.90
2023-03-25T20:10:20.009Z,2.05
2023-03-25T20:12:47.793Z,2.00
2023-03-25T20:15:14.531Z,1.90
2023-03-25T20:17:41.184Z,2.10
2023-03-25T20:20:10.366Z,1.88
2023-03-25T20:22:37.570Z,2.08
2023-03-25T20:25:04.929Z,1.55
2023-03-25T20:27:31.651Z,2.17
2023-03-25T20:29:58.038Z,1.90
2023-03-25T20:32:34.086Z,1.38
2023-03-25T20:35:07.217Z,2.00
2023-03-25T20:37:33.667Z,1.40
2023-03-25T20:40:00.262Z,1.75
2023-03-25T20:42:26.862Z,1.42
2023-03-25T20:44:53.267Z,1.92
2023-03-25T20:47:19.874Z,2.13
2023-03-25T20:49:46.264Z,1.85
2023-03-25T20:52:12.630Z,2.08
2023-03-25T20:54:39.104Z,2.13
2023-03-25T20:57:06.001Z,1.60
2023-03-25T20:59:32.626Z,2.10
2023-03-25T21:01:59.931Z,2.30
2023-03-25T21:04:26.477Z,2.20
2023-03-25T21:06:53.208Z,2.35
2023-03-25T21:09:19.576Z,2.15
2023-03-25T21:11:46.670Z,2.50
2023-03-25T21:14:13.215Z,2.30
2023-03-25T21:16:40.362Z,2.40
2023-03-25T21:19:08.040Z,2.10
2023-03-25T21:21:35.342Z,1.92
2023-03-25T21:24:03.843Z,2.00
2023-03-25T21:26:33.948Z,2.30
2023-03-25T21:29:00.505Z,2.17
2023-03-25T21:31:28.203Z,2.50
2023-03-25T21:33:56.308Z,2.13
2023-03-25T21:36:25.472Z,2.28
2023-03-25T21:38:55.444Z,2.13
2023-03-25T21:41:21.821Z,1.90
2023-03-25T21:43:48.248Z,2.70
2023-03-25T21:46:15.292Z,1.92
2023-03-25T21:48:44.737Z,2.53
2023-03-25T21:51:14.501Z,2.13
2023-03-25T21:53:45.317Z,2.22
2023-03-25T21:56:20.406Z,2.20
2023-03-25T21:58:47.881Z,2.15
2023-03-25T22:01:17.096Z,2.55
2023-03-25T22:03:46.418Z,2.58
2023-03-25T22:06:15.244Z,2.53
2023-03-25T22:08:42.062Z,2.47
2023-03-25T22:11:13.527Z,2.58
2023-03-25T22:13:41.016Z,2.88
2023-03-25T22:16:08.832Z,2.42
2023-03-25T22:18:35.673Z,2.78
2023-03-25T22:21:10.518Z,2.78
2023-03-25T22:23:37.132Z,2.97
2023-03-25T22:26:03.987Z,2.95
2023-03-25T22:28:30.645Z,2.92
2023-03-25T22:30:57.073Z,2.88
2023-03-25T22:33:23.547Z,3.10
2023-03-25T22:35:52.954Z,3.00
2023-03-25T22:38:21.271Z,3.10
2023-03-25T22:40:47.681Z,3.40
2023-03-25T22:43:14.146Z,3.45
2023-03-25T22:45:40.663Z,3.50
2023-03-25T22:48:07.069Z,3.28
2023-03-25T22:50:34.424Z,3.75
2023-03-25T22:53:01.718Z,3.85
2023-03-25T22:55:28.073Z,3.10
2023-03-25T22:57:54.528Z,3.63
2023-03-25T23:00:25.610Z,3.33
2023-03-25T23:02:52.066Z,3.83
2023-03-25T23:05:19.432Z,3.50
2023-03-25T23:07:45.836Z,3.80
2023-03-25T23:10:13.762Z,4.03
2023-03-25T23:12:40.224Z,3.78
2023-03-25T23:15:07.440Z,3.95
2023-03-25T23:17:35.134Z,3.67
2023-03-25T23:20:01.666Z,3.97
2023-03-25T23:22:28.130Z,3.50
2023-03-25T23:24:54.648Z,4.32
2023-03-25T23:27:22.264Z,4.25
2023-03-25T23:29:48.661Z,4.10
2023-03-25T23:32:16.334Z,4.65
2023-03-25T23:34:42.882Z,4.63
2023-03-25T23:37:09.351Z,4.80
2023-03-25T23:39:36.121Z,4.20
2023-03-25T23:42:02.481Z,4.50
2023-03-25T23:44:28.878Z,4.90
2023-03-25T23:46:55.710Z,4.47
2023-03-25T23:49:22.257Z,3.90
2023-03-25T23:51:48.783Z,4.45
2023-03-25T23:54:15.812Z,4.35
2023-03-25T23:56:43.039Z,4.00
2023-03-25T23:59:09.643Z,4.15
